Time;durP1;ratioP1;P1;durP2;ratioP2;P2;SDS_P1;SDS_P2;PMS_P1;PMS_P2;Temp;Humidity;BMP_temperature;BMP_pressure;BME280_temperature;BME280_humidity;BME280_pressure;Samples;Min_cycle;Max_cycle;Signal;HPM_P1;HPM_P2
2022/05/15 00:00:37;;;;;;;6.85;2.53;;;15.70;99.90;;;;;;5114194;28;20165;-64
2022/05/15 00:00:38;;;;;;;5.82;3.17;;;15.70;99.90;;;;;;5114048;28;20184;-64
2022/05/15 00:03:06;;;;;;;4.28;2.30;;;15.70;99.90;;;;;;5114042;28;20228;-63
2022/05/15 00:05:31;;;;;;;6.70;2.65;;;15.60;99.90;;;;;;5112501;28;20283;-64
2022/05/15 00:07:57;;;;;;;4.85;2.35;;;15.60;99.90;;;;;;5114222;28;20256;-63
2022/05/15 00:10:23;;;;;;;3.55;2.40;;;15.60;99.90;;;;;;5114117;28;20248;-64
2022/05/15 00:12:48;;;;;;;4.57;3.17;;;15.60;99.90;;;;;;5113993;28;20181;-64
2022/05/15 00:15:14;;;;;;;4.53;2.40;;;15.50;99.90;;;;;;5114209;28;20180;-64
2022/05/15 00:17:41;;;;;;;4.53;2.55;;;15.50;99.90;;;;;;5113969;28;20599;-63
2022/05/15 00:20:07;;;;;;;3.63;2.50;;;15.60;99.90;;;;;;5111807;28;20177;-63
2022/05/15 00:22:35;;;;;;;3.72;2.58;;;15.60;99.90;;;;;;5112654;28;20209;-64
2022/05/15 00:25:03;;;;;;;6.05;3.10;;;15.50;99.90;;;;;;5113860;28;20185;-63
2022/05/15 00:27:28;;;;;;;4.20;2.60;;;15.60;99.90;;;;;;5113778;28;20372;-63
2022/05/15 00:29:54;;;;;;;3.17;2.45;;;15.50;99.90;;;;;;5112559;28;20173;-63
2022/05/15 00:32:19;;;;;;;3.08;2.30;;;15.50;99.90;;;;;;5113676;28;20641;-63
2022/05/15 00:34:45;;;;;;;6.20;2.85;;;15.50;99.90;;;;;;5112402;28;20169;-63
2022/05/15 00:37:11;;;;;;;3.10;2.08;;;15.60;99.90;;;;;;5112918;28;20681;-64
2022/05/15 00:39:36;;;;;;;3.65;2.55;;;15.60;99.90;;;;;;5113698;28;20185;-63
2022/05/15 00:42:10;;;;;;;3.85;2.53;;;15.60;99.90;;;;;;5113441;28;20512;-64
2022/05/15 00:44:36;;;;;;;3.88;2.50;;;15.50;99.90;;;;;;5113684;28;20525;-64
2022/05/15 00:47:03;;;;;;;4.32;2.15;;;15.50;99.90;;;;;;5113422;28;20208;-64
2022/05/15 00:49:32;;;;;;;4.25;2.58;;;15.50;99.90;;;;;;5113958;28;20172;-63
2022/05/15 00:52:02;;;;;;;3.85;2.28;;;15.50;99.90;;;;;;5113427;28;20181;-64
2022/05/15 00:54:51;;;;;;;4.43;2.60;;;15.50;99.90;;;;;;5113586;28;20627;-63
2022/05/15 00:57:19;;;;;;;6.05;2.85;;;15.50;99.90;;;;;;5113452;28;20172;-63
2022/05/15 01:00:08;;;;;;;5.82;2.20;;;15.50;99.90;;;;;;5113340;28;20173;-63
2022/05/15 01:02:41;;;;;;;3.55;2.30;;;15.30;99.90;;;;;;5113586;28;20208;-63
2022/05/15 01:05:09;;;;;;;5.05;2.92;;;15.30;99.90;;;;;;5113089;28;20638;-64
2022/05/15 01:07:35;;;;;;;3.60;2.08;;;15.30;99.90;;;;;;5113582;28;20716;-63
2022/05/15 01:10:02;;;;;;;4.95;2.33;;;15.30;99.90;;;;;;5113235;28;20193;-63
2022/05/15 01:12:28;;;;;;;4.05;2.38;;;15.30;99.90;;;;;;5112365;28;20264;-63
2022/05/15 01:14:54;;;;;;;4.32;2.67;;;15.30;99.90;;;;;;5113347;28;20177;-63
2022/05/15 01:17:20;;;;;;;3.90;2.20;;;15.40;99.90;;;;;;5112297;28;20173;-63
2022/05/15 01:19:47;;;;;;;4.85;2.20;;;15.30;99.90;;;;;;5113264;28;20198;-64
2022/05/15 01:22:15;;;;;;;4.45;2.70;;;15.20;99.90;;;;;;5111970;28;20230;-64
2022/05/15 01:24:44;;;;;;;7.10;2.58;;;15.20;99.90;;;;;;5113072;28;20268;-63
2022/05/15 01:27:12;;;;;;;4.40;2.80;;;15.20;99.90;;;;;;5113353;28;20165;-64
2022/05/15 01:29:44;;;;;;;3.80;2.40;;;15.20;99.90;;;;;;5113265;28;20170;-63
2022/05/15 01:32:11;;;;;;;4.88;2.78;;;15.10;99.90;;;;;;5116170;28;20165;-63
2022/05/15 01:34:38;;;;;;;4.18;2.58;;;15.20;99.90;;;;;;5116851;28;20181;-63
2022/05/15 01:37:05;;;;;;;4.60;2.80;;;15.20;99.90;;;;;;5116877;28;20534;-63
2022/05/15 01:39:32;;;;;;;4.60;2.80;;;15.20;99.90;;;;;;5116805;28;20685;-63
2022/05/15 01:41:58;;;;;;;5.50;2.80;;;15.10;99.90;;;;;;5116995;28;20526;-63
2022/05/15 01:44:24;;;;;;;8.13;2.88;;;15.10;99.90;;;;;;5116785;28;20212;-63
2022/05/15 01:46:53;;;;;;;4.65;3.25;;;15.20;99.90;;;;;;5115656;28;20173;-63
2022/05/15 01:49:18;;;;;;;4.32;2.72;;;15.20;99.90;;;;;;5115499;28;20166;-63
2022/05/15 01:51:45;;;;;;;4.00;2.58;;;15.10;99.90;;;;;;5115240;28;20181;-63
2022/05/15 01:54:11;;;;;;;4.85;2.60;;;15.10;99.90;;;;;;5115494;28;20181;-63
2022/05/15 01:56:38;;;;;;;6.40;3.72;;;15.00;99.90;;;;;;5116624;28;20644;-62
2022/05/15 01:59:05;;;;;;;8.95;4.43;;;15.10;99.90;;;;;;5116489;28;20181;-63
2022/05/15 02:01:30;;;;;;;4.97;3.25;;;15.10;99.90;;;;;;5116445;28;20599;-63
2022/05/15 02:03:56;;;;;;;3.30;2.58;;;15.00;99.90;;;;;;5116206;28;20291;-63
2022/05/15 02:06:22;;;;;;;4.82;2.78;;;15.00;99.90;;;;;;5116433;28;20181;-63
2022/05/15 02:08:48;;;;;;;5.95;2.80;;;15.00;99.90;;;;;;5116495;28;20619;-64
2022/05/15 02:11:14;;;;;;;4.43;2.15;;;15.00;99.90;;;;;;5116082;28;20272;-62
2022/05/15 02:13:39;;;;;;;4.80;2.50;;;15.00;99.90;;;;;;5115410;28;20173;-63
2022/05/15 02:16:05;;;;;;;3.75;2.25;;;14.90;99.90;;;;;;5116183;28;20172;-63
2022/05/15 02:18:32;;;;;;;4.90;2.70;;;14.90;99.90;;;;;;5116112;28;20169;-63
2022/05/15 02:20:57;;;;;;;5.07;2.97;;;14.80;99.90;;;;;;5114720;28;20169;-63
2022/05/15 02:23:23;;;;;;;4.45;2.42;;;14.80;99.90;;;;;;5116104;28;20232;-63
2022/05/15 02:25:49;;;;;;;5.15;2.85;;;14.70;99.90;;;;;;5116054;28;20181;-64
2022/05/15 02:28:15;;;;;;;4.10;2.53;;;14.70;99.90;;;;;;5115982;28;20210;-63
2022/05/15 02:30:41;;;;;;;5.47;2.65;;;14.70;99.90;;;;;;5116034;28;20206;-63
2022/05/15 02:33:07;;;;;;;5.88;2.65;;;14.70;99.90;;;;;;5115817;28;20177;-63
2022/05/15 02:35:33;;;;;;;3.58;2.28;;;14.60;99.90;;;;;;5115615;28;20169;-63
2022/05/15 02:37:59;;;;;;;4.55;2.45;;;14.60;99.90;;;;;;5115904;28;20181;-63
2022/05/15 02:40:25;;;;;;;5.00;2.75;;;14.60;99.90;;;;;;5115605;28;20196;-64
2022/05/15 02:42:54;;;;;;;3.42;2.10;;;14.70;99.90;;;;;;5113643;28;20193;-63
2022/05/15 02:45:20;;;;;;;5.03;3.13;;;14.60;99.90;;;;;;5115516;28;20190;-63
2022/05/15 02:47:46;;;;;;;4.07;2.40;;;14.50;99.90;;;;;;5115649;28;20226;-63
2022/05/15 02:52:56;;;;;;;2.88;2.08;;;14.50;99.90;;;;;;5115479;28;20187;-63
2022/05/15 02:55:25;;;;;;;5.50;2.40;;;14.50;99.90;;;;;;5115458;28;20264;-63
2022/05/15 02:57:51;;;;;;;5.05;2.58;;;14.40;99.90;;;;;;5115351;28;20182;-63
2022/05/15 03:00:19;;;;;;;5.22;2.47;;;14.40;99.90;;;;;;5113938;28;20268;-63
2022/05/15 03:02:44;;;;;;;5.20;2.72;;;14.40;99.90;;;;;;5114034;28;20308;-63
2022/05/15 03:05:12;;;;;;;5.28;2.35;;;14.30;99.90;;;;;;5114004;28;20279;-63
2022/05/15 03:07:37;;;;;;;3.35;2.28;;;14.30;99.90;;;;;;5115220;28;20169;-63
2022/05/15 03:10:05;;;;;;;4.93;2.40;;;14.20;99.90;;;;;;5115289;28;20586;-63
2022/05/15 03:12:31;;;;;;;3.60;2.17;;;14.20;99.90;;;;;;5115066;28;20226;-63
2022/05/15 03:14:57;;;;;;;5.20;2.70;;;14.20;99.90;;;;;;5114940;28;20548;-63
2022/05/15 03:17:22;;;;;;;4.15;2.78;;;14.10;99.90;;;;;;5113945;28;20573;-63
2022/05/15 03:19:48;;;;;;;4.72;2.42;;;14.10;99.90;;;;;;5115326;28;20370;-63
2022/05/15 03:22:14;;;;;;;5.47;2.90;;;14.10;99.90;;;;;;5115150;28;20174;-63
2022/05/15 03:24:40;;;;;;;4.72;2.60;;;14.10;99.90;;;;;;5114930;28;20173;-63
2022/05/15 03:27:06;;;;;;;4.18;2.40;;;14.00;99.90;;;;;;5114785;28;20177;-63
2022/05/15 03:29:31;;;;;;;3.35;2.53;;;14.00;99.90;;;;;;5114695;28;20177;-63
2022/05/15 03:31:57;;;;;;;4.18;2.60;;;14.00;99.90;;;;;;5114823;28;20568;-63
2022/05/15 03:34:24;;;;;;;6.45;2.50;;;14.00;99.90;;;;;;5114691;28;20201;-63
2022/05/15 03:36:51;;;;;;;4.10;2.75;;;14.00;99.90;;;;;;5114868;28;20169;-63
2022/05/15 03:39:21;;;;;;;5.60;2.63;;;14.00;99.90;;;;;;5114615;28;20174;-63
2022/05/15 03:41:50;;;;;;;4.18;2.40;;;14.10;99.90;;;;;;5114508;28;20165;-63
2022/05/15 03:44:17;;;;;;;6.07;3.65;;;14.10;99.90;;;;;;5113117;28;20203;-63
2022/05/15 03:46:43;;;;;;;3.92;2.83;;;14.00;99.90;;;;;;5114561;28;20218;-63
2022/05/15 03:49:11;;;;;;;5.15;2.80;;;14.00;99.90;;;;;;5114545;28;20184;-63
2022/05/15 03:51:37;;;;;;;7.68;2.95;;;14.00;99.90;;;;;;5114531;28;20177;-63
2022/05/15 03:54:03;;;;;;;5.75;3.30;;;14.00;99.90;;;;;;5114237;28;20226;-62
2022/05/15 03:59:14;;;;;;;4.55;2.90;;;14.00;99.90;;;;;;5114179;28;20237;-62
2022/05/15 04:01:40;;;;;;;4.55;3.00;;;14.00;99.90;;;;;;5114242;28;20169;-63
2022/05/15 04:04:07;;;;;;;5.22;2.90;;;14.00;99.90;;;;;;5113910;28;20239;-63
2022/05/15 04:06:32;;;;;;;6.30;3.10;;;14.00;99.90;;;;;;5112856;28;20218;-63
2022/05/15 04:08:58;;;;;;;6.82;3.13;;;14.10;99.90;;;;;;5112871;28;20177;-63
2022/05/15 04:11:24;;;;;;;4.70;3.05;;;14.00;99.90;;;;;;5112590;28;20169;-63
2022/05/15 04:13:49;;;;;;;6.85;3.05;;;14.00;99.90;;;;;;5112778;28;20181;-63
2022/05/15 04:16:15;;;;;;;4.22;2.60;;;13.90;99.90;;;;;;5112917;28;20245;-62
2022/05/15 04:18:41;;;;;;;3.78;2.88;;;13.90;99.90;;;;;;5113981;28;20230;-63
2022/05/15 04:21:07;;;;;;;4.53;2.97;;;13.90;99.90;;;;;;5112580;28;20598;-63
2022/05/15 04:23:33;;;;;;;5.85;2.72;;;13.90;99.90;;;;;;5113781;28;20608;-63
2022/05/15 04:25:59;;;;;;;4.80;2.75;;;13.90;99.90;;;;;;5113800;28;20260;-63
2022/05/15 04:28:25;;;;;;;3.33;2.78;;;13.90;99.90;;;;;;5113918;28;20248;-63
2022/05/15 04:30:50;;;;;;;5.15;3.00;;;13.90;99.90;;;;;;5113837;28;20176;-63
2022/05/15 04:33:16;;;;;;;4.13;2.90;;;13.90;99.90;;;;;;5113715;28;20192;-63
2022/05/15 04:35:42;;;;;;;5.47;3.00;;;13.90;99.90;;;;;;5113447;28;20588;-62
2022/05/15 04:38:09;;;;;;;4.93;3.28;;;13.90;99.90;;;;;;5112443;28;20181;-63
2022/05/15 04:40:35;;;;;;;4.15;2.67;;;14.00;99.90;;;;;;5113656;28;20208;-63
2022/05/15 04:43:01;;;;;;;5.50;3.40;;;14.00;99.90;;;;;;5112338;28;20232;-62
2022/05/15 04:45:26;;;;;;;4.10;2.85;;;13.90;99.90;;;;;;5112345;28;20177;-62
2022/05/15 04:47:52;;;;;;;4.45;3.53;;;14.00;99.90;;;;;;5112457;28;20173;-63
2022/05/15 04:50:19;;;;;;;5.97;3.58;;;14.00;99.90;;;;;;5113445;28;20172;-63
2022/05/15 04:52:45;;;;;;;6.03;3.38;;;14.00;99.90;;;;;;5113558;28;20203;-63
2022/05/15 04:55:11;;;;;;;4.22;3.20;;;14.00;99.90;;;;;;5113765;28;20615;-63
2022/05/15 04:57:37;;;;;;;4.63;3.10;;;14.10;99.90;;;;;;5113637;28;20512;-62
2022/05/15 05:00:10;;;;;;;6.70;3.45;;;14.10;99.90;;;;;;5113643;28;20179;-63
2022/05/15 05:02:36;;;;;;;4.65;3.00;;;14.20;99.90;;;;;;5113410;28;20260;-63
2022/05/15 05:05:02;;;;;;;5.75;3.22;;;14.30;99.90;;;;;;5113613;28;20200;-63
2022/05/15 05:07:28;;;;;;;5.72;3.28;;;14.30;99.90;;;;;;5116908;28;20260;-63
2022/05/15 05:09:54;;;;;;;6.25;3.42;;;14.20;99.90;;;;;;5117623;28;20173;-63
2022/05/15 05:12:20;;;;;;;5.22;3.20;;;14.20;99.90;;;;;;5117621;28;20174;-63
2022/05/15 05:14:46;;;;;;;5.30;3.20;;;14.20;99.90;;;;;;5116212;28;20181;-63
2022/05/15 05:17:12;;;;;;;6.15;3.95;;;14.40;99.90;;;;;;5117444;28;20173;-63
2022/05/15 05:19:38;;;;;;;4.05;3.63;;;14.40;99.90;;;;;;5117472;28;20173;-63
2022/05/15 05:22:04;;;;;;;5.00;3.20;;;14.40;99.90;;;;;;5115433;28;20169;-63
2022/05/15 05:24:30;;;;;;;4.32;3.63;;;14.50;99.90;;;;;;5117245;28;20212;-63
2022/05/15 05:26:56;;;;;;;6.63;3.88;;;14.70;99.90;;;;;;5117340;28;20248;-63
2022/05/15 05:29:22;;;;;;;6.95;3.95;;;14.60;99.90;;;;;;5117186;28;20252;-63
2022/05/15 05:31:48;;;;;;;6.05;3.55;;;14.70;99.90;;;;;;5117136;28;20180;-63
2022/05/15 05:34:14;;;;;;;7.53;3.72;;;14.80;99.90;;;;;;5116918;28;20166;-62
2022/05/15 05:36:41;;;;;;;5.45;3.70;;;15.00;99.90;;;;;;5115595;28;20173;-63
2022/05/15 05:39:07;;;;;;;8.13;3.63;;;15.00;99.90;;;;;;5117060;28;20168;-63
2022/05/15 05:41:33;;;;;;;6.57;3.58;;;15.20;99.90;;;;;;5116763;28;20661;-63
2022/05/15 05:44:00;;;;;;;6.15;3.58;;;15.30;99.90;;;;;;5116761;28;20240;-63
2022/05/15 05:46:29;;;;;;;3.88;3.47;;;15.30;99.90;;;;;;5116624;28;20188;-61
2022/05/15 05:48:55;;;;;;;5.95;3.97;;;15.50;99.90;;;;;;5116746;28;20646;-63
2022/05/15 05:51:21;;;;;;;7.45;4.03;;;15.60;99.90;;;;;;5116471;28;20750;-63
2022/05/15 05:53:47;;;;;;;7.57;4.05;;;15.60;99.90;;;;;;5117010;28;20184;-63
2022/05/15 05:56:14;;;;;;;5.38;3.20;;;15.60;99.90;;;;;;5116914;28;20222;-63
2022/05/15 05:58:39;;;;;;;5.47;3.80;;;15.60;99.90;;;;;;5116508;28;20576;-62
2022/05/15 06:01:05;;;;;;;7.20;3.78;;;15.50;99.90;;;;;;5116449;28;20173;-63
2022/05/15 06:06:17;;;;;;;5.97;4.10;;;15.70;99.90;;;;;;5115239;28;20254;-63
2022/05/15 06:08:43;;;;;;;5.38;3.78;;;15.80;99.90;;;;;;5116430;28;20177;-63
2022/05/15 06:11:10;;;;;;;7.15;4.03;;;16.00;99.90;;;;;;5116209;28;20226;-63
2022/05/15 06:13:36;;;;;;;5.72;3.97;;;16.00;99.90;;;;;;5116523;28;20231;-63
2022/05/15 06:16:03;;;;;;;6.57;4.78;;;16.10;99.90;;;;;;5116199;28;20181;-62
2022/05/15 06:18:28;;;;;;;7.80;4.10;;;16.30;99.90;;;;;;5114770;28;20173;-63
2022/05/15 06:20:54;;;;;;;4.95;4.45;;;16.30;99.90;;;;;;5116194;28;20261;-63
2022/05/15 06:23:21;;;;;;;6.28;4.22;;;16.60;99.90;;;;;;5116089;28;20205;-63
2022/05/15 06:25:47;;;;;;;4.35;3.67;;;16.70;99.90;;;;;;5116069;28;20180;-63
2022/05/15 06:28:12;;;;;;;4.25;3.70;;;16.80;99.90;;;;;;5097721;28;20544;-63
2022/05/15 06:30:38;;;;;;;5.97;4.22;;;17.10;99.90;;;;;;5114524;28;20248;-63
2022/05/15 06:33:07;;;;;;;7.30;3.80;;;17.20;99.90;;;;;;5115748;28;20173;-63
2022/05/15 06:35:33;;;;;;;6.03;4.15;;;17.40;99.90;;;;;;5116027;28;20211;-63
2022/05/15 06:38:06;;;;;;;6.95;4.07;;;17.40;99.90;;;;;;5115914;28;20533;-63
2022/05/15 06:40:33;;;;;;;6.40;4.07;;;17.30;99.90;;;;;;5114508;28;20722;-63
2022/05/15 06:42:59;;;;;;;5.47;4.30;;;17.70;99.90;;;;;;5112451;28;20596;-63
2022/05/15 06:45:26;;;;;;;5.93;3.90;;;17.70;99.90;;;;;;5114487;28;20180;-63
2022/05/15 06:47:52;;;;;;;7.38;4.05;;;17.80;99.90;;;;;;5114093;28;20176;-63
2022/05/15 06:50:18;;;;;;;6.45;4.13;;;17.90;99.90;;;;;;5115440;28;20174;-63
2022/05/15 06:52:43;;;;;;;6.20;3.95;;;18.10;99.90;;;;;;5114067;28;20177;-63
2022/05/15 06:55:15;;;;;;;6.10;3.97;;;18.10;99.90;;;;;;5114005;28;20246;-63
2022/05/15 06:57:43;;;;;;;5.28;4.15;;;18.30;99.90;;;;;;5114953;28;20196;-63
2022/05/15 07:00:12;;;;;;;5.43;4.03;;;18.60;99.90;;;;;;5115185;28;20180;-63
2022/05/15 07:02:41;;;;;;;5.30;3.97;;;18.80;99.90;;;;;;5115005;28;20196;-63
2022/05/15 07:05:08;;;;;;;5.22;4.07;;;18.60;99.90;;;;;;5113617;28;20229;-63
2022/05/15 07:07:34;;;;;;;4.95;3.80;;;18.80;99.90;;;;;;5113306;28;20177;-63
2022/05/15 07:10:00;;;;;;;7.03;3.85;;;19.10;99.90;;;;;;5114737;28;20230;-63
2022/05/15 07:12:25;;;;;;;6.82;4.05;;;19.50;99.90;;;;;;5112775;28;20254;-63
2022/05/15 07:14:51;;;;;;;6.68;3.65;;;19.60;99.90;;;;;;5115133;28;20237;-63
2022/05/15 07:17:17;;;;;;;7.97;4.07;;;19.60;99.90;;;;;;5113647;28;20189;-63
2022/05/15 07:19:43;;;;;;;5.30;3.83;;;19.80;99.90;;;;;;5113640;28;20189;-63
2022/05/15 07:22:10;;;;;;;5.75;3.95;;;19.70;99.90;;;;;;5114400;28;20181;-63
2022/05/15 07:24:38;;;;;;;6.05;3.97;;;19.90;99.90;;;;;;5114531;27;20209;-63
2022/05/15 07:27:08;;;;;;;6.60;3.83;;;19.80;99.90;;;;;;5113231;28;20169;-63
2022/05/15 07:29:36;;;;;;;5.63;3.83;;;20.00;99.90;;;;;;5114387;28;20254;-63
2022/05/15 07:32:03;;;;;;;5.30;3.58;;;19.80;99.90;;;;;;5114136;28;20180;-63
2022/05/15 07:34:29;;;;;;;7.68;4.18;;;19.80;99.90;;;;;;5114399;28;20268;-64
2022/05/15 07:36:55;;;;;;;6.03;3.78;;;19.70;99.90;;;;;;5113193;28;20260;-63
2022/05/15 07:39:21;;;;;;;7.18;3.92;;;19.60;99.90;;;;;;5113179;28;20648;-63
2022/05/15 07:41:48;;;;;;;4.47;3.78;;;19.50;99.90;;;;;;5114183;28;20587;-63
2022/05/15 07:44:15;;;;;;;5.68;3.92;;;19.90;99.90;;;;;;5112634;28;20285;-63
2022/05/15 07:46:40;;;;;;;4.88;3.55;;;20.20;99.90;;;;;;5114084;28;20619;-63
2022/05/15 07:49:07;;;;;;;5.55;3.67;;;20.50;99.90;;;;;;5114157;28;20185;-63
2022/05/15 07:51:33;;;;;;;5.18;4.00;;;20.70;99.90;;;;;;5112894;28;20177;-63
2022/05/15 07:54:00;;;;;;;4.05;2.80;;;21.00;99.90;;;;;;5112978;28;20238;-63
2022/05/15 07:56:26;;;;;;;5.15;3.35;;;21.10;99.90;;;;;;5113958;28;20181;-63
2022/05/15 07:58:51;;;;;;;5.40;3.25;;;21.40;99.90;;;;;;5114450;28;20169;-63
2022/05/15 08:01:17;;;;;;;6.13;3.72;;;21.50;99.90;;;;;;5114161;28;20178;-63
2022/05/15 08:03:43;;;;;;;4.95;3.30;;;21.40;98.50;;;;;;5111894;28;20209;-63
2022/05/15 08:09:00;;;;;;;5.60;3.17;;;21.40;99.20;;;;;;5113478;28;20192;-63
2022/05/15 08:11:28;;;;;;;4.88;2.97;;;21.50;99.10;;;;;;5113344;28;20165;-63
2022/05/15 08:13:55;;;;;;;6.20;3.22;;;21.80;99.90;;;;;;5112033;28;20191;-63
2022/05/15 08:16:22;;;;;;;4.45;2.90;;;21.90;98.30;;;;;;5113304;28;20584;-63
2022/05/15 08:24:17;;;;;;;4.57;2.53;;;21.80;97.80;;;;;;5113255;28;20293;-63
2022/05/15 08:26:44;;;;;;;5.97;3.10;;;22.00;98.90;;;;;;5113256;28;20227;-63
2022/05/15 08:29:11;;;;;;;6.65;2.80;;;22.10;97.70;;;;;;5113044;28;20527;-64
2022/05/15 08:31:36;;;;;;;5.90;3.35;;;22.20;97.10;;;;;;5112429;28;20181;-63
2022/05/15 08:34:03;;;;;;;3.65;2.80;;;22.10;96.70;;;;;;5112962;28;20175;-63
2022/05/15 08:36:28;;;;;;;3.63;2.90;;;22.20;97.30;;;;;;5113071;28;20257;-63
2022/05/15 08:38:54;;;;;;;5.32;3.67;;;22.40;97.10;;;;;;5112908;28;20257;-64
2022/05/15 08:41:32;;;;;;;4.25;3.45;;;22.30;96.50;;;;;;5111007;28;20204;-63
2022/05/15 08:44:18;;;;;;;5.07;3.17;;;22.40;96.60;;;;;;5112564;28;20550;-63
2022/05/15 08:46:49;;;;;;;3.90;3.13;;;22.40;95.80;;;;;;5113263;28;20267;-64
2022/05/15 08:49:17;;;;;;;3.42;2.95;;;22.20;95.90;;;;;;5112593;28;20215;-63
2022/05/15 08:52:08;;;;;;;4.85;3.03;;;22.20;96.80;;;;;;5112469;28;20170;-64
2022/05/15 08:54:38;;;;;;;4.75;3.28;;;22.70;96.30;;;;;;5112295;28;20650;-63
2022/05/15 08:57:04;;;;;;;3.03;2.58;;;23.10;95.20;;;;;;5111964;28;20192;-63
2022/05/15 08:59:39;;;;;;;4.63;3.13;;;23.00;95.20;;;;;;5113167;28;20170;-64
2022/05/15 09:02:09;;;;;;;4.47;2.80;;;23.20;94.90;;;;;;5112922;28;20235;-64
2022/05/15 09:04:35;;;;;;;4.35;2.88;;;23.30;94.90;;;;;;5112996;28;20209;-64
2022/05/15 09:07:20;;;;;;;3.90;3.15;;;23.50;93.70;;;;;;5094615;28;20174;-64
2022/05/15 09:10:17;;;;;;;4.65;3.13;;;23.40;93.40;;;;;;5112326;28;20188;-64
2022/05/15 09:12:59;;;;;;;4.35;3.63;;;23.40;93.30;;;;;;5112830;28;20180;-64
2022/05/15 09:15:29;;;;;;;4.25;2.88;;;23.40;93.90;;;;;;5112782;28;20252;-64
2022/05/15 09:18:05;;;;;;;4.68;2.85;;;23.70;93.90;;;;;;5112907;28;20166;-64
2022/05/15 09:20:52;;;;;;;3.00;2.70;;;23.80;91.40;;;;;;5112881;28;20256;-64
2022/05/15 09:23:36;;;;;;;4.47;2.80;;;23.70;90.70;;;;;;5112698;28;20603;-63
2022/05/15 09:26:14;;;;;;;6.68;2.63;;;23.80;91.90;;;;;;5112987;28;20169;-64
2022/05/15 09:28:50;;;;;;;4.38;2.20;;;24.20;91.40;;;;;;5112642;28;20162;-64
2022/05/15 09:31:44;;;;;;;2.88;2.45;;;24.40;91.40;;;;;;5112684;28;20217;-64
2022/05/15 09:34:29;;;;;;;4.10;2.35;;;24.50;90.20;;;;;;5112542;28;20207;-64
2022/05/15 09:39:49;;;;;;;5.50;2.15;;;24.70;90.90;;;;;;5112917;28;20192;-63
2022/05/15 09:45:21;;;;;;;4.97;2.40;;;24.80;85.70;;;;;;5112516;28;20215;-64
2022/05/15 09:47:53;;;;;;;2.20;1.95;;;24.60;88.60;;;;;;5112465;28;20508;-64
2022/05/15 09:50:47;;;;;;;3.58;2.20;;;24.80;85.80;;;;;;5111531;28;20185;-63
2022/05/15 09:53:43;;;;;;;2.65;1.98;;;24.70;85.20;;;;;;5114179;27;20177;-63
2022/05/15 09:56:32;;;;;;;3.33;1.70;;;24.60;82.70;;;;;;5105347;28;20181;-62
2022/05/15 09:59:01;;;;;;;2.75;1.90;;;24.90;83.40;;;;;;5114064;28;20642;-63
2022/05/15 10:01:33;;;;;;;3.53;1.92;;;24.70;82.80;;;;;;5115320;28;20200;-63
2022/05/15 10:04:00;;;;;;;2.50;1.83;;;24.70;85.60;;;;;;5115781;28;20216;-64
2022/05/15 10:06:30;;;;;;;2.78;1.60;;;25.10;85.70;;;;;;5115972;28;20180;-63
2022/05/15 10:09:13;;;;;;;3.10;1.77;;;25.20;84.50;;;;;;5115704;28;20525;-64
2022/05/15 10:11:44;;;;;;;1.95;1.65;;;25.40;83.60;;;;;;5115746;28;20161;-64
2022/05/15 10:14:35;;;;;;;3.60;1.70;;;25.70;84.00;;;;;;5115896;28;20196;-64
2022/05/15 10:17:02;;;;;;;3.22;1.60;;;25.90;81.10;;;;;;5115078;28;20669;-64
2022/05/15 10:19:42;;;;;;;2.22;1.40;;;25.70;80.40;;;;;;5114312;28;20169;-64
2022/05/15 10:22:16;;;;;;;1.70;1.58;;;25.80;79.20;;;;;;5115568;28;20226;-64
2022/05/15 10:24:45;;;;;;;3.15;1.50;;;25.70;79.20;;;;;;5115592;28;20227;-64
2022/05/15 10:27:13;;;;;;;2.13;1.60;;;25.30;77.60;;;;;;5115588;28;20211;-65
2022/05/15 10:30:01;;;;;;;1.58;1.40;;;25.30;79.30;;;;;;5114712;28;20264;-64
2022/05/15 10:32:34;;;;;;;1.83;1.40;;;25.60;77.10;;;;;;5115401;28;20515;-65
2022/05/15 10:35:00;;;;;;;3.60;1.85;;;25.40;78.30;;;;;;5115433;28;20184;-64
2022/05/15 10:38:05;;;;;;;2.20;1.42;;;25.30;78.70;;;;;;5115140;28;20177;-64
2022/05/15 10:40:42;;;;;;;2.80;1.50;;;25.10;77.00;;;;;;5112415;28;20764;-64
2022/05/15 10:43:27;;;;;;;1.30;1.20;;;25.30;79.00;;;;;;5115274;28;20212;-64
2022/05/15 10:46:04;;;;;;;2.30;1.48;;;25.50;78.60;;;;;;5115233;28;20538;-64
2022/05/15 10:48:38;;;;;;;1.38;1.23;;;25.30;76.30;;;;;;5114981;28;20596;-64
2022/05/15 10:51:31;;;;;;;2.72;1.50;;;25.40;77.40;;;;;;5114873;28;20200;-64
2022/05/15 10:57:30;;;;;;;3.10;1.40;;;25.90;76.60;;;;;;5115085;28;20223;-64
2022/05/15 11:00:18;;;;;;;1.58;1.20;;;26.20;78.90;;;;;;5115074;28;20255;-64
2022/05/15 11:03:06;;;;;;;2.95;1.40;;;26.10;74.10;;;;;;5114753;28;20257;-64
2022/05/15 11:05:44;;;;;;;2.55;1.42;;;25.90;73.60;;;;;;5114784;28;20273;-64
2022/05/15 11:08:35;;;;;;;2.95;1.33;;;26.10;73.80;;;;;;5114874;28;20169;-65
2022/05/15 11:11:43;;;;;;;1.10;0.90;;;25.90;73.60;;;;;;5114710;28;20184;-65
2022/05/15 11:14:23;;;;;;;1.70;1.08;;;25.90;70.60;;;;;;5114425;28;20173;-65
2022/05/15 11:17:04;;;;;;;3.60;1.33;;;26.10;72.40;;;;;;5114692;28;20169;-64
2022/05/15 11:19:38;;;;;;;1.48;1.10;;;25.90;72.30;;;;;;5114774;28;20173;-64
2022/05/15 11:22:07;;;;;;;2.50;1.20;;;26.20;71.90;;;;;;5114328;28;20161;-64
2022/05/15 11:24:42;;;;;;;1.10;1.00;;;26.20;69.00;;;;;;5112810;28;20570;-65
2022/05/15 11:27:13;;;;;;;2.72;1.13;;;26.20;71.10;;;;;;5114451;28;20177;-64
2022/05/15 11:29:45;;;;;;;0.80;0.80;;;26.10;70.90;;;;;;5114500;28;20511;-64
2022/05/15 11:32:30;;;;;;;3.05;1.25;;;26.20;70.30;;;;;;5114117;28;20170;-64
2022/05/15 11:35:27;;;;;;;1.15;0.90;;;26.10;69.00;;;;;;5114430;28;20250;-64
2022/05/15 11:38:08;;;;;;;1.48;0.98;;;25.90;70.00;;;;;;5087035;28;20184;-64
2022/05/15 11:40:39;;;;;;;2.03;1.10;;;25.80;70.90;;;;;;5114008;28;20173;-64
2022/05/15 11:43:26;;;;;;;1.92;1.30;;;25.60;70.20;;;;;;5113842;28;20193;-64
2022/05/15 11:45:57;;;;;;;1.80;1.00;;;25.80;71.70;;;;;;5114046;28;20210;-64
2022/05/15 11:48:44;;;;;;;0.93;0.90;;;26.00;70.60;;;;;;5113925;28;20173;-64
2022/05/15 11:51:13;;;;;;;2.25;1.10;;;26.00;71.50;;;;;;5102436;28;20264;-64
2022/05/15 11:53:48;;;;;;;1.80;1.17;;;26.10;71.00;;;;;;5113665;28;20179;-64
2022/05/15 11:56:21;;;;;;;2.10;1.08;;;26.20;71.60;;;;;;5113884;28;20703;-64
2022/05/15 11:58:56;;;;;;;1.40;0.95;;;25.90;68.90;;;;;;5113804;28;20557;-64
2022/05/15 12:01:24;;;;;;;2.75;1.15;;;25.70;67.90;;;;;;5113724;28;20192;-65
2022/05/15 12:03:59;;;;;;;0.88;0.82;;;25.70;68.90;;;;;;5113333;28;20221;-64
2022/05/15 12:06:44;;;;;;;0.85;0.80;;;25.90;70.50;;;;;;5113899;28;20214;-65
2022/05/15 12:09:16;;;;;;;2.25;1.00;;;26.20;70.60;;;;;;5113580;28;20204;-64
2022/05/15 12:11:43;;;;;;;1.00;0.90;;;26.10;68.60;;;;;;5113577;28;20173;-64
2022/05/15 12:14:32;;;;;;;1.10;0.98;;;26.20;68.40;;;;;;5113341;28;20177;-65
2022/05/15 12:17:29;;;;;;;1.20;1.08;;;26.50;69.50;;;;;;5111548;28;20234;-64
2022/05/15 12:20:15;;;;;;;1.55;1.20;;;26.60;67.50;;;;;;5113447;28;20169;-64
2022/05/15 12:22:57;;;;;;;2.47;1.13;;;26.40;67.80;;;;;;5113187;28;20199;-64
2022/05/15 12:25:29;;;;;;;1.13;1.02;;;26.70;70.10;;;;;;5113357;28;20546;-64
2022/05/15 12:31:16;;;;;;;1.17;1.08;;;26.80;66.10;;;;;;5113183;28;20241;-64
2022/05/15 12:33:44;;;;;;;1.02;0.90;;;26.90;67.20;;;;;;5113274;28;20169;-64
2022/05/15 12:36:16;;;;;;;1.55;1.17;;;27.00;67.80;;;;;;5113042;28;20176;-64
2022/05/15 12:38:53;;;;;;;1.05;0.88;;;26.90;64.30;;;;;;5111894;28;20180;-64
2022/05/15 12:41:32;;;;;;;1.10;1.00;;;26.80;64.70;;;;;;5113120;28;20188;-64
2022/05/15 12:44:01;;;;;;;1.45;1.08;;;27.00;65.70;;;;;;5113313;28;20574;-65
2022/05/15 12:46:29;;;;;;;1.23;1.13;;;27.10;64.30;;;;;;5113248;28;20178;-65
2022/05/15 12:48:55;;;;;;;0.90;0.75;;;27.30;65.40;;;;;;5113103;28;20248;-65
2022/05/15 12:51:31;;;;;;;2.22;0.90;;;27.10;63.50;;;;;;5113018;28;20201;-65
2022/05/15 12:53:58;;;;;;;1.17;1.00;;;27.40;63.80;;;;;;5113032;28;20176;-64
2022/05/15 12:56:32;;;;;;;1.00;0.82;;;27.20;62.90;;;;;;5111756;28;20173;-64
2022/05/15 12:59:18;;;;;;;0.80;0.80;;;27.00;65.00;;;;;;5113136;28;20167;-65
2022/05/15 13:01:45;;;;;;;0.80;0.80;;;27.20;62.40;;;;;;5113284;28;20165;-64
2022/05/15 13:04:20;;;;;;;0.93;0.63;;;26.80;61.10;;;;;;5111306;28;20216;-64
2022/05/15 13:06:59;;;;;;;0.93;0.80;;;27.00;63.80;;;;;;5113031;28;20279;-65
2022/05/15 13:09:29;;;;;;;1.67;1.00;;;27.00;62.10;;;;;;5112935;28;20175;-63
2022/05/15 13:12:01;;;;;;;1.10;0.82;;;27.50;65.60;;;;;;5112821;28;20165;-64
2022/05/15 13:14:45;;;;;;;0.98;0.95;;;27.60;63.00;;;;;;5112739;28;20280;-65
2022/05/15 13:17:12;;;;;;;1.65;1.00;;;27.50;61.10;;;;;;5112792;28;20557;-65
2022/05/15 13:19:46;;;;;;;1.00;0.93;;;27.30;60.80;;;;;;5111534;28;20170;-64
2022/05/15 13:22:25;;;;;;;1.15;1.00;;;26.80;59.40;;;;;;5112800;28;20232;-65
2022/05/15 13:25:04;;;;;;;1.30;0.75;;;26.50;62.10;;;;;;5111671;28;20184;-64
2022/05/15 13:27:33;;;;;;;1.00;0.88;;;26.30;62.20;;;;;;5114400;28;20212;-65
2022/05/15 13:29:59;;;;;;;1.52;0.77;;;26.40;63.00;;;;;;5116664;28;20180;-65